Ackley, Iowa
Current Conditions -  °F | °C
As of 9:35 PM on Friday 31 Oct 2014 (Local Time) from KIFA Reporting Station
Clear Clear  
Wind Chill: -7°   Ceiling: Unl
Heat Index: -4°   Visibility: 10mi
Dew Point: -8°   Wind: 5mph
Humidity: 78%   Direction: 280°W
Pressure: 30.47"   Gusts: NA
Location:  42.55°N, 93.05°W
Report Text: KIFA 010235Z AUTO 28004KT 10SM CLR M04/M07 A3047 RMK AO2 T10411075
Loading
Personal Weather Stations






























Interactive Weather Map
Tropical Storm Tracking
New forecast layout! Learn more

10-Day Weather Forecast

Advertisements
Track Severe Weather on mobile